createdAt,value
2018-04-24T00:04:37.471Z,57.15
2018-04-24T00:09:40.014Z,57.98
2018-04-24T00:14:42.536Z,58.39
2018-04-24T00:19:45.079Z,59.88
2018-04-24T00:24:47.572Z,61.17
2018-04-24T00:29:50.066Z,61.75
2018-04-24T00:34:52.587Z,60.88
2018-04-24T00:39:55.093Z,59.75
2018-04-24T00:44:57.570Z,59.73
2018-04-24T00:50:00.071Z,60.26
2018-04-24T00:55:02.526Z,61.26
2018-04-24T01:00:05.005Z,61.80
2018-04-24T01:05:07.576Z,62.89
2018-04-24T01:10:10.162Z,64.29
2018-04-24T01:15:12.698Z,64.69
2018-04-24T01:20:15.284Z,65.60
2018-04-24T01:25:17.775Z,66.23
2018-04-24T01:30:20.252Z,66.63
2018-04-24T01:35:22.707Z,67.04
2018-04-24T01:40:25.167Z,67.22
2018-04-24T01:45:27.607Z,67.53
2018-04-24T01:50:30.097Z,67.47
2018-04-24T01:55:32.538Z,68.01
2018-04-24T02:00:34.986Z,68.23
2018-04-24T02:05:37.679Z,68.86
2018-04-24T02:10:40.260Z,69.17
2018-04-24T02:15:42.760Z,69.29
2018-04-24T02:20:45.337Z,68.90
2018-04-24T02:25:47.804Z,69.27
2018-04-24T02:30:50.368Z,69.27
2018-04-24T02:35:52.825Z,69.45
2018-04-24T02:40:55.275Z,69.11
2018-04-24T02:45:57.724Z,69.34
2018-04-24T02:51:00.232Z,69.81
2018-04-24T02:56:02.729Z,69.14
2018-04-24T03:01:05.404Z,69.41
2018-04-24T03:06:08.483Z,69.63
2018-04-24T03:11:11.978Z,70.52
2018-04-24T03:16:14.494Z,71.10
2018-04-24T03:21:17.028Z,71.32
2018-04-24T03:26:19.567Z,71.48
2018-04-24T03:31:22.023Z,71.99
2018-04-24T03:36:24.505Z,72.31
2018-04-24T03:41:27.149Z,72.49
2018-04-24T03:46:29.604Z,72.83
2018-04-24T03:51:32.658Z,72.85
2018-04-24T03:56:35.220Z,72.93
2018-04-24T04:01:38.339Z,72.55
2018-04-24T04:06:40.854Z,72.10
2018-04-24T04:11:43.424Z,70.84
2018-04-24T04:16:46.125Z,69.91
2018-04-24T04:27:27.790Z,69.12
2018-04-24T04:32:30.238Z,68.43
2018-04-24T04:37:32.721Z,67.96
2018-04-24T04:42:35.293Z,66.35
2018-04-24T04:47:37.811Z,65.66
2018-04-24T04:52:40.389Z,65.49
2018-04-24T04:57:42.912Z,64.18
2018-04-24T05:02:45.624Z,63.36
2018-04-24T05:07:48.093Z,63.04
2018-04-24T05:12:50.556Z,61.72
2018-04-24T05:17:53.003Z,62.71
2018-04-24T05:22:55.519Z,62.48
2018-04-24T05:27:58.023Z,62.31
2018-04-24T05:33:00.499Z,63.16
2018-04-24T05:38:02.972Z,63.47
2018-04-24T05:43:05.429Z,62.42
2018-04-24T05:48:08.361Z,62.09
2018-04-24T05:53:12.451Z,60.17
2018-04-24T05:58:14.920Z,58.67
2018-04-24T06:03:17.834Z,57.41
2018-04-24T06:08:20.672Z,56.08
2018-04-24T06:13:23.177Z,55.91
2018-04-24T06:18:25.645Z,55.38
2018-04-24T06:23:28.119Z,55.78
2018-04-24T06:28:30.671Z,55.22
2018-04-24T06:33:33.068Z,55.16
2018-04-24T06:38:35.547Z,52.65
2018-04-24T06:43:38.064Z,50.05
2018-04-24T06:48:40.568Z,50.57
2018-04-24T06:53:43.069Z,51.98
2018-04-24T06:58:45.516Z,51.44
2018-04-24T07:03:48.001Z,48.94
2018-04-24T07:08:50.461Z,46.89
2018-04-24T07:13:52.926Z,47.17
2018-04-24T07:18:55.376Z,46.00
2018-04-24T07:23:57.866Z,45.57
2018-04-24T07:29:00.348Z,46.23
2018-04-24T07:34:02.824Z,45.21
2018-04-24T07:39:06.122Z,43.86
2018-04-24T07:44:08.650Z,43.62
2018-04-24T07:49:11.158Z,43.81
2018-04-24T07:54:13.681Z,43.40
2018-04-24T07:59:16.204Z,43.23
2018-04-24T08:04:18.652Z,43.56
2018-04-24T08:09:21.119Z,43.60
2018-04-24T08:14:23.597Z,43.10
2018-04-24T08:19:26.103Z,37.39
2018-04-24T08:24:28.571Z,36.80
2018-04-24T08:29:31.041Z,37.30
2018-04-24T08:34:33.517Z,36.03
2018-04-24T08:39:36.010Z,37.18
2018-04-24T08:44:38.637Z,35.27
2018-04-24T08:49:41.285Z,34.11
2018-04-24T08:54:43.807Z,32.42
2018-04-24T08:59:46.300Z,30.63
2018-04-24T09:04:58.682Z,30.98
2018-04-24T09:10:01.131Z,32.27
2018-04-24T09:15:03.701Z,32.78
2018-04-24T09:20:06.505Z,32.65
2018-04-24T09:25:09.048Z,31.86
2018-04-24T09:35:36.930Z,33.08
2018-04-24T09:40:39.446Z,34.71
2018-04-24T09:45:41.952Z,36.25
2018-04-24T09:50:44.423Z,36.76
2018-04-24T09:55:46.890Z,35.20
2018-04-24T10:00:49.589Z,34.89
2018-04-24T10:05:52.068Z,31.96
2018-04-24T10:10:54.522Z,31.93
2018-04-24T10:15:57.256Z,32.42
2018-04-24T10:20:59.756Z,32.88
2018-04-24T10:26:02.231Z,31.77
2018-04-24T10:31:04.725Z,32.66
2018-04-24T10:36:07.255Z,34.25
2018-04-24T10:41:09.785Z,34.59
2018-04-24T10:46:12.286Z,35.70
2018-04-24T10:51:14.877Z,37.20
2018-04-24T10:56:17.321Z,37.34
2018-04-24T11:01:19.818Z,36.82
2018-04-24T11:06:22.281Z,36.49
2018-04-24T11:11:24.722Z,37.16
2018-04-24T11:16:27.206Z,36.67
2018-04-24T11:21:29.711Z,38.18
2018-04-24T11:26:32.209Z,40.33
2018-04-24T11:31:34.676Z,41.71
2018-04-24T11:36:37.256Z,43.31
2018-04-24T11:41:39.820Z,43.21
2018-04-24T11:46:42.280Z,41.76
2018-04-24T11:51:45.174Z,38.98
2018-04-24T11:56:47.677Z,38.06
2018-04-24T12:01:50.598Z,37.36
2018-04-24T12:06:53.215Z,37.68
2018-04-24T12:11:55.741Z,35.70
2018-04-24T12:16:58.197Z,35.62
2018-04-24T12:22:00.738Z,36.67
2018-04-24T12:27:03.191Z,36.86
2018-04-24T12:32:05.722Z,37.31
2018-04-24T12:37:08.274Z,36.83
2018-04-24T12:42:10.803Z,36.23
2018-04-24T12:47:13.312Z,37.54
2018-04-24T12:52:15.852Z,38.64
2018-04-24T12:57:18.311Z,41.05
2018-04-24T13:02:20.789Z,41.76
2018-04-24T13:07:23.234Z,41.70
2018-04-24T13:12:25.716Z,41.88
2018-04-24T13:17:28.170Z,42.69
2018-04-24T13:22:30.639Z,42.50
2018-04-24T13:27:33.180Z,43.81
2018-04-24T13:32:35.664Z,43.02
2018-04-24T13:37:38.190Z,44.76
2018-04-24T13:42:40.718Z,44.86
2018-04-24T13:47:43.219Z,43.70
2018-04-24T13:52:45.688Z,41.69
2018-04-24T13:57:48.164Z,40.12
2018-04-24T14:02:50.643Z,39.36
2018-04-24T14:07:53.109Z,39.31
2018-04-24T14:12:55.629Z,39.99
2018-04-24T14:17:58.101Z,39.86
2018-04-24T14:23:02.428Z,40.61
2018-04-24T14:28:04.951Z,41.43
2018-04-24T14:33:07.497Z,42.41
2018-04-24T14:38:09.991Z,43.68
2018-04-24T14:43:12.583Z,44.95
2018-04-24T14:48:15.152Z,45.84
2018-04-24T14:53:17.729Z,46.62
2018-04-24T14:58:20.236Z,46.33
2018-04-24T15:03:22.723Z,47.71
2018-04-24T15:08:25.208Z,47.81
2018-04-24T15:13:27.707Z,49.01
2018-04-24T15:23:39.301Z,50.73
2018-04-24T15:28:41.837Z,52.80
2018-04-24T15:33:44.491Z,53.14
2018-04-24T15:38:47.005Z,53.81
2018-04-24T15:43:49.476Z,53.82
2018-04-24T15:48:51.940Z,52.77
2018-04-24T15:53:54.408Z,53.38
2018-04-24T15:58:58.248Z,52.83
2018-04-24T16:04:00.735Z,52.50
2018-04-24T16:09:03.205Z,51.68
2018-04-24T16:14:05.760Z,51.14
2018-04-24T16:19:08.381Z,51.01
2018-04-24T16:24:12.540Z,51.05
2018-04-24T16:29:15.187Z,49.97
2018-04-24T16:34:17.703Z,50.07
2018-04-24T16:39:20.267Z,47.84
2018-04-24T16:44:22.710Z,46.07
2018-04-24T16:49:25.310Z,46.93
2018-04-24T16:54:28.001Z,47.78
2018-04-24T16:59:30.451Z,47.59
2018-04-24T17:04:32.911Z,47.41
2018-04-24T17:09:35.379Z,48.43
2018-04-24T17:14:38.157Z,50.51
2018-04-24T17:19:40.663Z,51.27
2018-04-24T17:24:43.338Z,51.59
2018-04-24T17:29:45.844Z,51.22
2018-04-24T17:34:48.484Z,50.30
2018-04-24T17:39:52.554Z,50.16
2018-04-24T17:44:55.005Z,51.04
2018-04-24T17:49:57.583Z,51.61
2018-04-24T17:55:00.191Z,51.65
2018-04-24T18:00:02.709Z,52.26
2018-04-24T18:05:05.446Z,52.42
2018-04-24T18:10:08.052Z,53.02
2018-04-24T18:15:10.844Z,53.46
2018-04-24T18:20:13.562Z,53.62
2018-04-24T18:25:16.216Z,54.34
2018-04-24T18:30:18.639Z,54.25
2018-04-24T18:35:21.118Z,53.91
2018-04-24T18:40:23.604Z,54.35
2018-04-24T18:45:26.087Z,54.59
2018-04-24T18:50:29.273Z,55.41
2018-04-24T18:55:32.810Z,56.24
2018-04-24T19:00:36.688Z,56.65
2018-04-24T19:05:39.243Z,57.01
2018-04-24T19:10:41.947Z,57.82
2018-04-24T19:15:47.015Z,58.83
2018-04-24T19:20:49.474Z,58.94
2018-04-24T19:25:51.938Z,60.00
2018-04-24T19:30:54.404Z,60.24
2018-04-24T19:35:56.868Z,59.01
2018-04-24T19:46:38.741Z,59.35
2018-04-24T19:51:42.292Z,60.11
2018-04-24T19:56:44.844Z,59.97
2018-04-24T20:01:47.768Z,58.55
2018-04-24T20:06:50.274Z,58.35
2018-04-24T20:11:52.898Z,59.07
2018-04-24T20:16:55.423Z,59.09
2018-04-24T20:21:57.883Z,60.38
2018-04-24T20:27:00.359Z,61.34
2018-04-24T20:32:02.816Z,61.66
2018-04-24T20:37:05.285Z,61.46
2018-04-24T20:42:08.828Z,59.75
2018-04-24T20:47:11.781Z,59.60
2018-04-24T20:52:14.410Z,59.26
2018-04-24T20:57:17.097Z,59.93
2018-04-24T21:02:19.663Z,61.50
2018-04-24T21:07:22.162Z,61.54
2018-04-24T21:12:24.687Z,62.07
2018-04-24T21:17:29.380Z,62.29
2018-04-24T21:22:31.848Z,62.46
2018-04-24T21:27:34.346Z,62.99
2018-04-24T21:32:36.891Z,63.30
2018-04-24T21:37:39.481Z,63.75
2018-04-24T21:42:42.044Z,64.09
2018-04-24T21:47:44.612Z,64.17
2018-04-24T21:52:47.219Z,63.77
2018-04-24T21:57:49.702Z,64.23
2018-04-24T22:02:52.173Z,64.47
2018-04-24T22:07:54.663Z,64.54
2018-04-24T22:12:57.175Z,64.74
2018-04-24T22:17:59.642Z,64.89
2018-04-24T22:23:02.151Z,64.83
2018-04-24T22:28:04.724Z,64.96
2018-04-24T22:33:07.258Z,63.77
2018-04-24T22:38:09.830Z,64.89
2018-04-24T22:43:12.344Z,64.19
2018-04-24T22:48:14.858Z,64.37
2018-04-24T22:53:17.314Z,64.28
2018-04-24T22:58:21.271Z,64.10
2018-04-24T23:03:23.902Z,64.16
2018-04-24T23:08:26.388Z,64.75
2018-04-24T23:13:40.842Z,65.52
2018-04-24T23:18:55.284Z,66.26
2018-04-24T23:23:57.743Z,66.67
2018-04-24T23:29:00.219Z,66.77
2018-04-24T23:34:02.675Z,66.80
2018-04-24T23:39:05.186Z,66.71
2018-04-24T23:44:07.703Z,67.04
2018-04-24T23:49:10.249Z,67.14
2018-04-24T23:54:12.781Z,67.32
2018-04-24T23:59:15.274Z,67.92
